createdAt,value
2024-03-16T08:46:53.694Z,23.02
2024-03-16T08:47:04.971Z,23.04
2024-03-16T08:47:16.472Z,23.09
2024-03-16T08:47:27.787Z,23.10
2024-03-16T08:47:39.436Z,23.13
2024-03-16T08:47:50.818Z,23.14
2024-03-16T08:48:02.428Z,23.15
2024-03-16T08:48:13.734Z,23.16
2024-03-16T08:48:25.293Z,23.18
2024-03-16T08:48:36.690Z,23.19
2024-03-16T08:48:48.323Z,23.19
2024-03-16T08:48:59.656Z,23.21
2024-03-16T08:49:11.255Z,23.23
2024-03-16T08:49:22.576Z,23.22
2024-03-16T08:49:34.178Z,23.24
2024-03-16T08:49:45.478Z,23.24
2024-03-16T08:49:57.004Z,23.25
2024-03-16T08:50:08.245Z,23.25
2024-03-16T08:50:19.791Z,23.26
2024-03-16T08:50:31.102Z,23.26
2024-03-16T08:50:42.665Z,23.28
2024-03-16T08:50:53.914Z,23.28
2024-03-16T08:51:05.506Z,23.28
2024-03-16T08:51:16.756Z,23.29
2024-03-16T08:51:28.291Z,23.30
2024-03-16T08:51:39.590Z,23.30
2024-03-16T08:51:51.159Z,23.31
2024-03-16T08:52:02.510Z,23.31
2024-03-16T08:52:14.122Z,23.31
2024-03-16T08:52:25.586Z,23.32
2024-03-16T08:52:38.639Z,23.32
2024-03-16T08:52:48.360Z,23.32
2024-03-16T08:52:59.960Z,23.33
2024-03-16T08:53:11.219Z,23.33
2024-03-16T08:53:22.751Z,23.34
2024-03-16T08:53:34.062Z,23.34
2024-03-16T08:53:45.589Z,23.34
2024-03-16T08:53:56.878Z,23.34
2024-03-16T08:54:08.382Z,23.34
2024-03-16T08:54:19.808Z,23.35
2024-03-16T08:54:31.404Z,23.36
2024-03-16T08:54:42.695Z,23.35
2024-03-16T08:54:54.278Z,23.35
2024-03-16T08:55:05.610Z,23.36
2024-03-16T08:55:17.352Z,23.37
2024-03-16T08:55:28.735Z,23.36
2024-03-16T08:55:40.373Z,23.36
2024-03-16T08:55:52.409Z,23.37
2024-03-16T08:56:03.710Z,23.37
2024-03-16T08:56:15.208Z,23.38
2024-03-16T08:56:26.456Z,23.38
2024-03-16T08:56:38.002Z,23.39
2024-03-16T08:56:49.308Z,23.38
2024-03-16T08:57:00.836Z,23.38
2024-03-16T08:57:12.106Z,23.38
2024-03-16T08:57:23.869Z,23.39
2024-03-16T08:57:35.406Z,23.39
2024-03-16T08:57:47.097Z,23.39
2024-03-16T08:57:58.375Z,23.39
2024-03-16T08:58:09.962Z,23.39
2024-03-16T08:58:21.300Z,23.40
2024-03-16T08:58:32.905Z,23.39
2024-03-16T08:58:47.080Z,23.40
2024-03-16T08:58:54.477Z,23.38
2024-03-16T08:59:05.803Z,23.39
2024-03-16T08:59:17.307Z,23.39
2024-03-16T08:59:28.568Z,23.40
2024-03-16T08:59:40.100Z,23.40
2024-03-16T08:59:51.409Z,23.41
2024-03-16T09:00:02.936Z,23.41
2024-03-16T09:00:14.245Z,23.41
2024-03-16T09:00:25.861Z,23.41
2024-03-16T09:00:37.192Z,23.41
2024-03-16T09:00:48.834Z,23.41
2024-03-16T09:01:00.252Z,23.42
2024-03-16T09:01:11.909Z,23.42
2024-03-16T09:01:23.317Z,23.41
2024-03-16T09:01:34.948Z,23.41
2024-03-16T09:01:46.430Z,23.41
2024-03-16T09:01:58.135Z,23.43
2024-03-16T09:02:09.441Z,23.42
2024-03-16T09:02:20.947Z,23.42
2024-03-16T09:02:32.242Z,23.43
2024-03-16T09:02:43.769Z,23.43
2024-03-16T09:02:55.038Z,23.43
2024-03-16T09:03:06.580Z,23.43
2024-03-16T09:03:17.886Z,23.43
2024-03-16T09:03:29.680Z,23.43
2024-03-16T09:03:40.996Z,23.43
2024-03-16T09:03:52.571Z,23.43
2024-03-16T09:04:03.897Z,23.43
2024-03-16T09:04:15.500Z,23.44
2024-03-16T09:04:26.880Z,23.44
2024-03-16T09:04:38.456Z,23.43
2024-03-16T09:04:52.493Z,23.44
2024-03-16T09:05:01.842Z,23.43
2024-03-16T09:05:13.372Z,23.44
2024-03-16T09:05:24.650Z,23.44
2024-03-16T09:05:36.210Z,23.44
2024-03-16T09:05:47.482Z,23.44
2024-03-16T09:05:59.058Z,23.44
2024-03-16T09:06:10.433Z,23.44
2024-03-16T09:06:21.967Z,23.44
2024-03-16T09:06:33.253Z,23.45
2024-03-16T09:06:44.811Z,23.44
2024-03-16T09:06:56.086Z,23.45
2024-03-16T09:07:07.692Z,23.45
2024-03-16T09:07:19.029Z,23.45
2024-03-16T09:07:30.580Z,23.46
2024-03-16T09:07:41.876Z,23.46
2024-03-16T09:07:53.366Z,23.45
2024-03-16T09:08:04.632Z,23.46
2024-03-16T09:08:16.163Z,23.46
2024-03-16T09:08:27.473Z,23.46
2024-03-16T09:08:39.039Z,23.46
2024-03-16T09:08:50.366Z,23.47
2024-03-16T09:09:01.932Z,23.46
2024-03-16T09:09:13.180Z,23.47
2024-03-16T09:09:24.807Z,23.47
2024-03-16T09:09:36.087Z,23.47
2024-03-16T09:09:47.674Z,23.48
2024-03-16T09:09:59.196Z,23.48
2024-03-16T09:10:10.997Z,23.48
2024-03-16T09:10:22.338Z,23.47
2024-03-16T09:10:33.952Z,23.47
2024-03-16T09:10:45.254Z,23.48
2024-03-16T09:10:56.853Z,23.48
2024-03-16T09:11:08.173Z,23.48
2024-03-16T09:11:19.813Z,23.48
2024-03-16T09:11:31.068Z,23.48
2024-03-16T09:11:42.644Z,23.48
2024-03-16T09:11:53.947Z,23.48
2024-03-16T09:12:05.472Z,23.49
2024-03-16T09:12:16.714Z,23.49
2024-03-16T09:12:28.248Z,23.48
2024-03-16T09:12:39.541Z,23.48
2024-03-16T09:12:51.148Z,23.49
2024-03-16T09:13:02.458Z,23.50
2024-03-16T09:13:14.050Z,23.49
2024-03-16T09:13:25.289Z,23.49
2024-03-16T09:13:36.828Z,23.49
2024-03-16T09:13:48.078Z,23.50
2024-03-16T09:13:59.617Z,23.50
2024-03-16T09:14:10.856Z,23.50
2024-03-16T09:14:22.396Z,23.50
2024-03-16T09:14:33.651Z,23.50
2024-03-16T09:14:45.180Z,23.50
2024-03-16T09:14:56.454Z,23.51
2024-03-16T09:15:08.023Z,23.51
2024-03-16T09:15:19.287Z,23.51
2024-03-16T09:15:30.907Z,23.51
2024-03-16T09:15:42.289Z,23.51
2024-03-16T09:15:53.891Z,23.51
2024-03-16T09:16:05.186Z,23.51
2024-03-16T09:16:16.879Z,23.51
2024-03-16T09:16:28.256Z,23.51
2024-03-16T09:16:39.781Z,23.51
2024-03-16T09:16:51.036Z,23.52
2024-03-16T09:17:02.599Z,23.52
2024-03-16T09:17:13.845Z,23.52
2024-03-16T09:17:25.386Z,23.52
2024-03-16T09:17:36.753Z,23.52
2024-03-16T09:17:48.292Z,23.52
2024-03-16T09:17:59.585Z,23.52
2024-03-16T09:18:11.217Z,23.52
2024-03-16T09:18:22.477Z,23.52
2024-03-16T09:18:34.015Z,23.52
2024-03-16T09:18:45.334Z,23.52
2024-03-16T09:18:56.911Z,23.52
2024-03-16T09:19:08.381Z,23.53
2024-03-16T09:19:20.026Z,23.53
2024-03-16T09:19:31.318Z,23.53
2024-03-16T09:19:42.837Z,23.53
2024-03-16T09:19:54.103Z,23.54
2024-03-16T09:20:05.629Z,23.53
2024-03-16T09:20:16.945Z,23.53
2024-03-16T09:20:28.497Z,23.53
2024-03-16T09:20:39.806Z,23.54
2024-03-16T09:20:51.345Z,23.54
2024-03-16T09:21:02.609Z,23.54
2024-03-16T09:21:14.141Z,23.54
2024-03-16T09:21:25.504Z,23.54
2024-03-16T09:21:37.099Z,23.54
2024-03-16T09:21:48.365Z,23.55
2024-03-16T09:21:59.929Z,23.55
2024-03-16T09:22:11.311Z,23.54
2024-03-16T09:22:22.889Z,23.55
2024-03-16T09:22:34.177Z,23.55
2024-03-16T09:22:45.757Z,23.55
2024-03-16T09:22:57.043Z,23.55
2024-03-16T09:23:08.563Z,23.55
2024-03-16T09:23:19.914Z,23.56
2024-03-16T09:23:31.484Z,23.55
2024-03-16T09:23:42.727Z,23.55
2024-03-16T09:23:54.264Z,23.55
2024-03-16T09:24:05.533Z,23.56
2024-03-16T09:24:17.075Z,23.56
2024-03-16T09:24:28.348Z,23.56
2024-03-16T09:24:39.878Z,23.57
2024-03-16T09:24:51.204Z,23.57
2024-03-16T09:25:02.920Z,23.56
2024-03-16T09:25:14.334Z,23.56
2024-03-16T09:25:25.962Z,23.56
2024-03-16T09:25:37.347Z,23.57
2024-03-16T09:25:48.849Z,23.57
2024-03-16T09:26:00.162Z,23.57
2024-03-16T09:26:11.731Z,23.57
2024-03-16T09:26:23.019Z,23.57
2024-03-16T09:26:34.550Z,23.57
2024-03-16T09:26:45.805Z,23.57
2024-03-16T09:26:57.372Z,23.58
2024-03-16T09:27:08.619Z,23.57
2024-03-16T09:27:20.162Z,23.58
2024-03-16T09:27:31.503Z,23.57
2024-03-16T09:27:43.102Z,23.58
2024-03-16T09:27:54.430Z,23.57
2024-03-16T09:28:06.047Z,23.58
2024-03-16T09:28:17.366Z,23.58
2024-03-16T09:28:28.933Z,23.59
2024-03-16T09:28:40.170Z,23.58
2024-03-16T09:28:51.697Z,23.58
2024-03-16T09:29:02.974Z,23.58
2024-03-16T09:29:14.504Z,23.59
2024-03-16T09:29:25.780Z,23.59
2024-03-16T09:29:37.335Z,23.59
2024-03-16T09:29:48.593Z,23.59
2024-03-16T09:30:00.287Z,23.59
2024-03-16T09:30:11.597Z,23.59
2024-03-16T09:30:23.105Z,23.59
2024-03-16T09:30:34.446Z,23.59
2024-03-16T09:30:46.191Z,23.59
2024-03-16T09:30:57.717Z,23.59
2024-03-16T09:31:09.275Z,23.59
2024-03-16T09:31:20.641Z,23.59
2024-03-16T09:31:32.283Z,23.60
2024-03-16T09:31:43.536Z,23.59
2024-03-16T09:31:55.072Z,23.60
2024-03-16T09:32:06.356Z,23.61
2024-03-16T09:32:17.946Z,23.60
2024-03-16T09:32:29.255Z,23.60
2024-03-16T09:32:40.869Z,23.60
2024-03-16T09:32:52.197Z,23.59
2024-03-16T09:33:03.782Z,23.61
2024-03-16T09:33:15.116Z,23.60
2024-03-16T09:33:26.611Z,23.61
2024-03-16T09:33:37.933Z,23.61
2024-03-16T09:33:49.455Z,23.60
2024-03-16T09:34:00.968Z,23.61
2024-03-16T09:34:12.620Z,23.60
2024-03-16T09:34:23.950Z,23.60
2024-03-16T09:34:35.464Z,23.60
2024-03-16T09:34:46.736Z,23.61
2024-03-16T09:34:58.259Z,23.61
2024-03-16T09:35:09.600Z,23.61
2024-03-16T09:35:21.140Z,23.61
2024-03-16T09:35:32.413Z,23.61
2024-03-16T09:35:43.932Z,23.61
2024-03-16T09:35:55.245Z,23.61
2024-03-16T09:36:06.779Z,23.62
2024-03-16T09:36:18.125Z,23.61
2024-03-16T09:36:29.648Z,23.62
2024-03-16T09:36:40.920Z,23.61
2024-03-16T09:36:52.497Z,23.62
2024-03-16T09:37:03.819Z,23.62
2024-03-16T09:37:15.337Z,23.62
2024-03-16T09:37:26.624Z,23.62
2024-03-16T09:37:38.236Z,23.63
2024-03-16T09:37:49.515Z,23.63
2024-03-16T09:38:01.042Z,23.62
2024-03-16T09:38:12.292Z,23.63
2024-03-16T09:38:23.824Z,23.62
2024-03-16T09:38:35.112Z,23.63
2024-03-16T09:38:46.673Z,23.63
2024-03-16T09:38:57.925Z,23.63
2024-03-16T09:39:09.446Z,23.63
2024-03-16T09:39:20.720Z,23.63
2024-03-16T09:39:32.304Z,23.63
2024-03-16T09:39:43.760Z,23.63
2024-03-16T09:39:55.397Z,23.63
2024-03-16T09:40:06.792Z,23.63
2024-03-16T09:40:18.446Z,23.63
2024-03-16T09:40:29.899Z,23.64
2024-03-16T09:40:41.499Z,23.64
2024-03-16T09:40:52.763Z,23.64
2024-03-16T09:41:04.287Z,23.64
2024-03-16T09:41:15.553Z,23.64
2024-03-16T09:41:27.075Z,23.64
2024-03-16T09:41:38.346Z,23.65
2024-03-16T09:41:49.909Z,23.65
2024-03-16T09:42:01.159Z,23.65
2024-03-16T09:42:12.689Z,23.65
2024-03-16T09:42:23.986Z,23.65
2024-03-16T09:42:35.555Z,23.66
2024-03-16T09:42:46.855Z,23.65
2024-03-16T09:42:58.443Z,23.66
2024-03-16T09:43:10.297Z,23.66
2024-03-16T09:43:20.142Z,23.65
2024-03-16T09:43:31.643Z,23.66
2024-03-16T09:43:42.908Z,23.66
2024-03-16T09:43:54.432Z,23.67
2024-03-16T09:44:05.714Z,23.66
2024-03-16T09:44:17.255Z,23.67
2024-03-16T09:44:28.590Z,23.67
2024-03-16T09:44:40.147Z,23.67
2024-03-16T09:44:51.409Z,23.68
2024-03-16T09:45:02.993Z,23.67
2024-03-16T09:45:14.295Z,23.67
2024-03-16T09:45:25.857Z,23.68
2024-03-16T09:45:37.148Z,23.68
2024-03-16T09:45:48.683Z,23.69
2024-03-16T09:45:59.983Z,23.68
2024-03-16T09:46:11.640Z,23.69
2024-03-16T09:46:22.968Z,23.69
2024-03-16T09:46:34.482Z,23.69
2024-03-16T09:46:45.798Z,23.69
2024-03-16T09:46:57.331Z,23.69
2024-03-16T09:47:08.626Z,23.69
2024-03-16T09:47:20.165Z,23.70
2024-03-16T09:47:31.490Z,23.71
2024-03-16T09:47:43.141Z,23.70
2024-03-16T09:47:54.423Z,23.71
2024-03-16T09:48:05.971Z,23.71
2024-03-16T09:48:17.236Z,23.71
2024-03-16T09:48:28.778Z,23.72
2024-03-16T09:48:40.063Z,23.72
2024-03-16T09:48:51.700Z,23.72
2024-03-16T09:49:03.005Z,23.72
2024-03-16T09:49:14.566Z,23.72
2024-03-16T09:49:25.811Z,23.72
2024-03-16T09:49:37.369Z,23.73
2024-03-16T09:49:48.685Z,23.73
2024-03-16T09:50:00.312Z,23.73
2024-03-16T09:50:11.582Z,23.73
2024-03-16T09:50:23.133Z,23.74
2024-03-16T09:50:34.400Z,23.74
2024-03-16T09:50:45.926Z,23.74
2024-03-16T09:50:57.193Z,23.74
2024-03-16T09:51:08.728Z,23.75
2024-03-16T09:51:20.066Z,23.74
2024-03-16T09:51:31.627Z,23.75
2024-03-16T09:51:42.960Z,23.75
2024-03-16T09:51:54.493Z,23.75
2024-03-16T09:52:05.829Z,23.75
2024-03-16T09:52:17.538Z,23.76
2024-03-16T09:52:28.791Z,23.75
2024-03-16T09:52:40.349Z,23.75
2024-03-16T09:52:51.674Z,23.77
2024-03-16T09:53:03.186Z,23.76
2024-03-16T09:53:14.447Z,23.77
2024-03-16T09:53:25.985Z,23.77
2024-03-16T09:53:37.621Z,23.77
2024-03-16T09:53:49.171Z,23.77
2024-03-16T09:54:01.197Z,23.75
2024-03-16T09:54:12.436Z,23.76
2024-03-16T09:54:23.979Z,23.77
2024-03-16T09:54:35.273Z,23.77
2024-03-16T09:54:46.829Z,23.78
2024-03-16T09:54:58.128Z,23.78
2024-03-16T09:55:09.808Z,23.78
2024-03-16T09:55:21.199Z,23.78
2024-03-16T09:55:32.794Z,23.79
2024-03-16T09:55:44.060Z,23.79
2024-03-16T09:55:55.585Z,23.79
2024-03-16T09:56:06.891Z,23.79
2024-03-16T09:56:18.443Z,23.79
2024-03-16T09:56:29.727Z,23.79
2024-03-16T09:56:41.267Z,23.80
2024-03-16T09:56:52.561Z,23.80
2024-03-16T09:57:04.132Z,23.80
2024-03-16T09:57:15.399Z,23.80
2024-03-16T09:57:26.995Z,23.81
2024-03-16T09:57:38.313Z,23.81
2024-03-16T09:57:49.883Z,23.81
2024-03-16T09:58:01.243Z,23.80
2024-03-16T09:58:15.501Z,23.82
2024-03-16T09:58:22.931Z,23.81
2024-03-16T09:58:34.231Z,23.81
2024-03-16T09:58:45.780Z,23.82
2024-03-16T09:58:59.525Z,23.82
2024-03-16T09:59:17.507Z,23.80
2024-03-16T09:59:29.465Z,23.79
2024-03-16T09:59:31.430Z,23.79
2024-03-16T09:59:42.715Z,23.81
2024-03-16T09:59:54.276Z,23.81
2024-03-16T10:00:05.543Z,23.82
2024-03-16T10:00:17.095Z,23.82
2024-03-16T10:00:28.347Z,23.83
2024-03-16T10:00:39.908Z,23.83
2024-03-16T10:00:51.264Z,23.83
2024-03-16T10:01:02.819Z,23.84
2024-03-16T10:01:14.196Z,23.84
2024-03-16T10:01:25.731Z,23.85
2024-03-16T10:01:37.029Z,23.84
2024-03-16T10:01:48.556Z,23.85
2024-03-16T10:01:59.870Z,23.85
2024-03-16T10:02:11.407Z,23.85
2024-03-16T10:02:22.706Z,23.85
2024-03-16T10:02:34.232Z,23.86
2024-03-16T10:02:45.462Z,23.86
2024-03-16T10:02:57.032Z,23.86
2024-03-16T10:03:08.298Z,23.87
2024-03-16T10:03:19.840Z,23.87
2024-03-16T10:03:31.135Z,23.87
2024-03-16T10:03:42.686Z,23.88
2024-03-16T10:03:53.994Z,23.87
2024-03-16T10:04:05.620Z,23.88
2024-03-16T10:04:17.007Z,23.88
2024-03-16T10:04:28.558Z,23.88
2024-03-16T10:04:42.051Z,23.88
2024-03-16T10:04:51.293Z,23.87
2024-03-16T10:05:02.898Z,23.89
2024-03-16T10:05:14.126Z,23.89
2024-03-16T10:05:25.721Z,23.89
2024-03-16T10:05:37.056Z,23.90
2024-03-16T10:05:48.594Z,23.89
2024-03-16T10:05:59.911Z,23.89
2024-03-16T10:06:11.476Z,23.90
2024-03-16T10:06:22.727Z,23.90
2024-03-16T10:06:34.296Z,23.91
2024-03-16T10:06:45.541Z,23.90
2024-03-16T10:06:57.132Z,23.91
2024-03-16T10:07:08.474Z,23.91
2024-03-16T10:07:20.032Z,23.91
2024-03-16T10:07:31.303Z,23.91
2024-03-16T10:07:42.808Z,23.92
2024-03-16T10:07:54.070Z,23.93
2024-03-16T10:08:05.604Z,23.93
2024-03-16T10:08:16.866Z,23.93
2024-03-16T10:08:28.622Z,23.93
2024-03-16T10:08:39.879Z,23.93
2024-03-16T10:08:51.410Z,23.93
2024-03-16T10:09:02.688Z,23.93
2024-03-16T10:09:14.214Z,23.93
2024-03-16T10:09:25.490Z,23.94
2024-03-16T10:09:36.995Z,23.93
2024-03-16T10:09:48.292Z,23.94
2024-03-16T10:09:59.852Z,23.94
2024-03-16T10:10:11.207Z,23.94
2024-03-16T10:10:22.815Z,23.95
2024-03-16T10:10:34.135Z,23.95
2024-03-16T10:10:45.674Z,23.95
2024-03-16T10:10:57.055Z,23.95
2024-03-16T10:11:08.686Z,23.96
2024-03-16T10:11:19.981Z,23.95
2024-03-16T10:11:31.499Z,23.97
2024-03-16T10:11:42.756Z,23.95
2024-03-16T10:11:54.379Z,23.96
2024-03-16T10:12:05.669Z,23.95
2024-03-16T10:12:17.210Z,23.96
2024-03-16T10:12:28.478Z,23.97
2024-03-16T10:12:40.018Z,23.97
2024-03-16T10:12:51.301Z,23.97
2024-03-16T10:13:03.016Z,23.98
2024-03-16T10:13:14.454Z,23.97
2024-03-16T10:13:25.952Z,23.97
2024-03-16T10:13:37.212Z,23.97
2024-03-16T10:13:48.764Z,23.97
2024-03-16T10:14:00.083Z,23.98
2024-03-16T10:14:11.647Z,23.99
2024-03-16T10:14:22.901Z,23.98
2024-03-16T10:14:34.422Z,23.98
2024-03-16T10:14:45.717Z,23.99
2024-03-16T10:14:57.254Z,23.99
2024-03-16T10:15:08.535Z,23.99
2024-03-16T10:15:20.050Z,23.99
2024-03-16T10:15:31.379Z,23.99
2024-03-16T10:15:42.908Z,23.99
2024-03-16T10:15:54.217Z,24.00
2024-03-16T10:16:05.793Z,24.00
2024-03-16T10:16:17.154Z,24.00
2024-03-16T10:16:28.659Z,24.01
2024-03-16T10:16:39.925Z,24.01
2024-03-16T10:16:51.470Z,24.00
2024-03-16T10:17:02.861Z,24.01
2024-03-16T10:17:14.372Z,24.01
2024-03-16T10:17:25.683Z,24.02
2024-03-16T10:17:37.220Z,24.02
2024-03-16T10:17:48.496Z,24.02
2024-03-16T10:18:00.007Z,24.02
2024-03-16T10:18:11.264Z,24.02
2024-03-16T10:18:22.808Z,24.02
2024-03-16T10:18:34.090Z,24.02
2024-03-16T10:18:45.658Z,24.03
2024-03-16T10:18:57.001Z,24.03
2024-03-16T10:19:08.532Z,24.03
2024-03-16T10:19:21.805Z,24.03
2024-03-16T10:19:30.291Z,24.02
2024-03-16T10:19:41.555Z,24.02
2024-03-16T10:19:53.089Z,24.03
2024-03-16T10:20:04.398Z,24.03
2024-03-16T10:20:15.936Z,24.04
2024-03-16T10:20:27.208Z,24.04
2024-03-16T10:20:38.727Z,24.04
2024-03-16T10:20:49.992Z,24.04
2024-03-16T10:21:01.562Z,24.05
2024-03-16T10:21:12.822Z,24.05
2024-03-16T10:21:24.368Z,24.06
2024-03-16T10:21:35.796Z,24.05
2024-03-16T10:21:47.388Z,24.06
2024-03-16T10:21:58.722Z,24.06
2024-03-16T10:22:10.369Z,24.06
2024-03-16T10:22:21.624Z,24.06
2024-03-16T10:22:33.142Z,24.06
2024-03-16T10:22:44.457Z,24.08
2024-03-16T10:22:55.998Z,24.08
2024-03-16T10:23:07.343Z,24.07
2024-03-16T10:23:18.876Z,24.07
2024-03-16T10:23:30.202Z,24.08
2024-03-16T10:23:41.710Z,24.08
2024-03-16T10:23:53.016Z,24.08
2024-03-16T10:24:04.592Z,24.08
2024-03-16T10:24:15.860Z,24.08
2024-03-16T10:24:27.388Z,24.09
2024-03-16T10:24:38.699Z,24.08
2024-03-16T10:24:50.247Z,24.08
2024-03-16T10:25:01.605Z,24.09
2024-03-16T10:25:13.120Z,24.09
2024-03-16T10:25:24.440Z,24.09
2024-03-16T10:25:39.253Z,24.10
2024-03-16T10:25:46.527Z,24.08
2024-03-16T10:25:57.777Z,24.09
2024-03-16T10:26:09.310Z,24.10
2024-03-16T10:26:20.584Z,24.10
2024-03-16T10:26:32.105Z,24.10
2024-03-16T10:26:43.416Z,24.10
2024-03-16T10:26:55.022Z,24.10
2024-03-16T10:27:06.304Z,24.11
2024-03-16T10:27:17.822Z,24.12
2024-03-16T10:27:29.097Z,24.11
2024-03-16T10:27:40.660Z,24.11
2024-03-16T10:27:51.980Z,24.12
2024-03-16T10:28:03.636Z,24.12
2024-03-16T10:28:14.989Z,24.11
2024-03-16T10:28:26.568Z,24.12
2024-03-16T10:28:37.893Z,24.12
2024-03-16T10:28:49.403Z,24.13
2024-03-16T10:29:00.683Z,24.13
2024-03-16T10:29:12.210Z,24.13
2024-03-16T10:29:23.486Z,24.13
2024-03-16T10:29:34.994Z,24.14
2024-03-16T10:29:46.311Z,24.14
2024-03-16T10:29:57.831Z,24.14
2024-03-16T10:30:09.119Z,24.14
2024-03-16T10:30:20.641Z,24.15
2024-03-16T10:30:31.916Z,24.14
2024-03-16T10:30:43.455Z,24.14
2024-03-16T10:30:54.773Z,24.15
2024-03-16T10:31:06.416Z,24.15
2024-03-16T10:31:17.710Z,24.16
2024-03-16T10:31:29.245Z,24.15
2024-03-16T10:31:40.528Z,24.16
2024-03-16T10:31:55.108Z,24.16
2024-03-16T10:32:02.431Z,24.15
2024-03-16T10:32:13.772Z,24.16
2024-03-16T10:32:25.295Z,24.16
2024-03-16T10:32:36.556Z,24.17
2024-03-16T10:32:48.107Z,24.16
2024-03-16T10:32:59.395Z,24.17
2024-03-16T10:33:10.915Z,24.16
2024-03-16T10:33:22.171Z,24.17
2024-03-16T10:33:33.758Z,24.17
2024-03-16T10:33:45.079Z,24.18
2024-03-16T10:33:56.674Z,24.17
2024-03-16T10:34:08.133Z,24.17
2024-03-16T10:34:19.674Z,24.18
2024-03-16T10:34:30.955Z,24.17
2024-03-16T10:34:42.482Z,24.18
2024-03-16T10:34:53.805Z,24.19
2024-03-16T10:35:05.343Z,24.19
2024-03-16T10:35:16.652Z,24.19
2024-03-16T10:35:28.223Z,24.19
2024-03-16T10:35:39.475Z,24.19
2024-03-16T10:35:51.012Z,24.19
2024-03-16T10:36:02.324Z,24.20
2024-03-16T10:36:13.861Z,24.19
2024-03-16T10:36:25.112Z,24.20
2024-03-16T10:36:36.695Z,24.20
2024-03-16T10:36:47.998Z,24.21
2024-03-16T10:36:59.523Z,24.21
2024-03-16T10:37:10.863Z,24.21
2024-03-16T10:37:22.402Z,24.21
2024-03-16T10:37:33.722Z,24.22
2024-03-16T10:37:47.087Z,24.21
2024-03-16T10:37:55.308Z,24.21
2024-03-16T10:38:06.587Z,24.21
2024-03-16T10:38:18.138Z,24.21
2024-03-16T10:38:29.492Z,24.22
2024-03-16T10:38:41.081Z,24.22
2024-03-16T10:38:52.342Z,24.22
2024-03-16T10:39:03.909Z,24.23
2024-03-16T10:39:15.188Z,24.23
2024-03-16T10:39:26.756Z,24.23
2024-03-16T10:39:38.034Z,24.23
2024-03-16T10:39:49.721Z,24.23
2024-03-16T10:40:01.003Z,24.24
2024-03-16T10:40:12.719Z,24.24
2024-03-16T10:40:23.988Z,24.24
2024-03-16T10:40:35.560Z,24.25
2024-03-16T10:40:46.825Z,24.24
2024-03-16T10:40:58.370Z,24.24
2024-03-16T10:41:10.648Z,24.26
2024-03-16T10:41:19.800Z,24.25
2024-03-16T10:41:31.333Z,24.25
2024-03-16T10:41:42.628Z,24.26
2024-03-16T10:41:54.198Z,24.25
2024-03-16T10:42:05.462Z,24.26
2024-03-16T10:42:17.033Z,24.26
2024-03-16T10:42:28.311Z,24.27
2024-03-16T10:42:39.852Z,24.26
2024-03-16T10:42:51.142Z,24.27
2024-03-16T10:43:02.722Z,24.27
2024-03-16T10:43:14.001Z,24.27
2024-03-16T10:43:25.856Z,24.27
2024-03-16T10:43:37.119Z,24.27
2024-03-16T10:43:48.692Z,24.27
2024-03-16T10:43:59.976Z,24.27
2024-03-16T10:44:11.527Z,24.28
2024-03-16T10:44:22.805Z,24.28
2024-03-16T10:44:34.380Z,24.28
2024-03-16T10:44:45.732Z,24.29
2024-03-16T10:44:57.369Z,24.28
2024-03-16T10:45:08.650Z,24.29
2024-03-16T10:45:20.199Z,24.29
2024-03-16T10:45:31.506Z,24.29
2024-03-16T10:45:42.998Z,24.29
2024-03-16T10:45:54.298Z,24.29
2024-03-16T10:46:05.828Z,24.30
2024-03-16T10:46:17.083Z,24.30
2024-03-16T10:46:28.641Z,24.30
2024-03-16T10:46:39.908Z,24.30
2024-03-16T10:46:51.438Z,24.30
2024-03-16T10:47:02.721Z,24.30
2024-03-16T10:47:14.304Z,24.31
2024-03-16T10:47:25.593Z,24.31
2024-03-16T10:47:37.149Z,24.31
2024-03-16T10:47:48.404Z,24.31
2024-03-16T10:47:59.937Z,24.32
2024-03-16T10:48:11.229Z,24.31
2024-03-16T10:48:22.740Z,24.31
2024-03-16T10:48:34.033Z,24.32
2024-03-16T10:48:45.550Z,24.32
2024-03-16T10:48:56.820Z,24.32
2024-03-16T10:49:08.336Z,24.32
2024-03-16T10:49:19.633Z,24.32
2024-03-16T10:49:31.204Z,24.33
2024-03-16T10:49:42.531Z,24.32
2024-03-16T10:49:54.056Z,24.32
2024-03-16T10:50:05.341Z,24.33
2024-03-16T10:50:16.896Z,24.32
2024-03-16T10:50:28.176Z,24.32
2024-03-16T10:50:39.709Z,24.32
2024-03-16T10:50:53.179Z,24.33
2024-03-16T10:51:01.655Z,24.31
2024-03-16T10:51:12.916Z,24.31
2024-03-16T10:51:24.441Z,24.33
2024-03-16T10:51:35.749Z,24.33
2024-03-16T10:51:47.319Z,24.34
2024-03-16T10:51:58.603Z,24.33
2024-03-16T10:52:10.351Z,24.33
2024-03-16T10:52:21.601Z,24.34
2024-03-16T10:52:33.133Z,24.34
2024-03-16T10:52:44.484Z,24.34
2024-03-16T10:52:56.051Z,24.33
2024-03-16T10:53:07.385Z,24.34
2024-03-16T10:53:18.920Z,24.35
2024-03-16T10:53:30.288Z,24.35
2024-03-16T10:53:41.799Z,24.35
2024-03-16T10:53:53.289Z,24.34
2024-03-16T10:54:04.879Z,24.35
2024-03-16T10:54:16.216Z,24.36
2024-03-16T10:54:27.744Z,24.36
2024-03-16T10:54:39.077Z,24.35
2024-03-16T10:54:50.598Z,24.35
2024-03-16T10:55:01.891Z,24.36
2024-03-16T10:55:13.448Z,24.36
2024-03-16T10:55:24.742Z,24.37
2024-03-16T10:55:36.294Z,24.36
2024-03-16T10:55:47.557Z,24.37
2024-03-16T10:55:59.101Z,24.36
2024-03-16T10:56:10.455Z,24.37
2024-03-16T10:56:21.957Z,24.37
2024-03-16T10:56:33.225Z,24.37
2024-03-16T10:56:44.768Z,24.37
2024-03-16T10:56:57.401Z,24.38
2024-03-16T10:57:06.698Z,24.36
2024-03-16T10:57:18.229Z,24.38
2024-03-16T10:57:29.534Z,24.38
2024-03-16T10:57:41.068Z,24.38
2024-03-16T10:57:52.364Z,24.37
2024-03-16T10:58:04.130Z,24.38
2024-03-16T10:58:15.394Z,24.38
2024-03-16T10:58:26.976Z,24.38
2024-03-16T10:58:38.229Z,24.38
2024-03-16T10:58:49.746Z,24.38
2024-03-16T10:59:01.033Z,24.39
2024-03-16T10:59:12.537Z,24.39
2024-03-16T10:59:23.799Z,24.39
2024-03-16T10:59:35.344Z,24.39
2024-03-16T10:59:46.608Z,24.39
2024-03-16T10:59:58.138Z,24.39
2024-03-16T11:00:09.644Z,24.40
2024-03-16T11:00:21.209Z,24.39
2024-03-16T11:00:32.657Z,24.40
2024-03-16T11:00:44.213Z,24.39
2024-03-16T11:00:55.568Z,24.40
2024-03-16T11:01:07.084Z,24.40
2024-03-16T11:01:19.165Z,24.40
2024-03-16T11:01:30.773Z,24.40
2024-03-16T11:01:42.086Z,24.40
2024-03-16T11:01:53.679Z,24.40
2024-03-16T11:02:04.972Z,24.41
2024-03-16T11:02:16.506Z,24.41
2024-03-16T11:02:27.798Z,24.41
2024-03-16T11:02:39.317Z,24.41
2024-03-16T11:02:52.296Z,24.40
2024-03-16T11:03:02.614Z,24.39
2024-03-16T11:03:14.172Z,24.41
2024-03-16T11:03:25.397Z,24.40
2024-03-16T11:03:36.956Z,24.40
2024-03-16T11:03:48.197Z,24.41
2024-03-16T11:03:59.737Z,24.41
2024-03-16T11:04:11.047Z,24.41
2024-03-16T11:04:22.535Z,24.42
2024-03-16T11:04:33.797Z,24.42
2024-03-16T11:04:45.339Z,24.42
2024-03-16T11:04:56.604Z,24.42
2024-03-16T11:05:08.137Z,24.43
2024-03-16T11:05:19.469Z,24.43
2024-03-16T11:05:31.013Z,24.42
2024-03-16T11:05:42.278Z,24.43
2024-03-16T11:05:53.809Z,24.43
2024-03-16T11:06:05.107Z,24.43
2024-03-16T11:06:16.615Z,24.43
2024-03-16T11:06:27.882Z,24.43
2024-03-16T11:06:39.413Z,24.44
2024-03-16T11:06:50.688Z,24.43
2024-03-16T11:07:02.218Z,24.43
2024-03-16T11:07:13.482Z,24.43
2024-03-16T11:07:25.013Z,24.43
2024-03-16T11:07:36.288Z,24.44
2024-03-16T11:07:47.853Z,24.44
2024-03-16T11:07:59.162Z,24.43
2024-03-16T11:08:10.721Z,24.45
2024-03-16T11:08:22.015Z,24.44
2024-03-16T11:08:33.517Z,24.45
2024-03-16T11:08:44.789Z,24.44
2024-03-16T11:08:56.360Z,24.45
2024-03-16T11:09:07.634Z,24.45
2024-03-16T11:09:19.168Z,24.45
2024-03-16T11:09:30.455Z,24.45
2024-03-16T11:09:41.985Z,24.45
2024-03-16T11:09:53.447Z,24.45
2024-03-16T11:10:04.966Z,24.46
2024-03-16T11:10:16.243Z,24.46
2024-03-16T11:10:27.784Z,24.46
2024-03-16T11:10:39.062Z,24.46
2024-03-16T11:10:50.578Z,24.46
2024-03-16T11:11:01.890Z,24.46
2024-03-16T11:11:13.421Z,24.47
2024-03-16T11:11:24.709Z,24.47
2024-03-16T11:11:36.202Z,24.47
2024-03-16T11:11:47.461Z,24.47
2024-03-16T11:11:59.011Z,24.48
2024-03-16T11:12:10.296Z,24.47
2024-03-16T11:12:21.818Z,24.48
2024-03-16T11:12:33.120Z,24.49
2024-03-16T11:12:44.644Z,24.49
2024-03-16T11:12:55.915Z,24.49
2024-03-16T11:13:07.546Z,24.49
2024-03-16T11:13:18.806Z,24.49
2024-03-16T11:13:30.377Z,24.50
2024-03-16T11:13:41.616Z,24.50
2024-03-16T11:13:54.415Z,24.51